Time;durP1;ratioP1;P1;durP2;ratioP2;P2;SDS_P1;SDS_P2;PMS_P1;PMS_P2;Temp;Humidity;BMP_temperature;BMP_pressure;BME280_temperature;BME280_humidity;BME280_pressure;Samples;Min_cycle;Max_cycle;Signal;HPM_P1;HPM_P2
2023/08/17 00:01:39;;;;;;;7.22;6.40;;;23.40;80.20;;;;;;5037186;28;20037;-54
2023/08/17 00:04:05;;;;;;;9.05;6.97;;;23.40;80.40;;;;;;5036535;28;20021;-51
2023/08/17 00:06:31;;;;;;;9.07;7.05;;;23.40;80.60;;;;;;5036370;28;20034;-51
2023/08/17 00:08:56;;;;;;;7.38;6.22;;;23.40;80.60;;;;;;5036872;28;20029;-51
2023/08/17 00:11:22;;;;;;;6.65;5.93;;;23.40;80.70;;;;;;5036185;28;20030;-51
2023/08/17 00:13:48;;;;;;;6.38;5.70;;;23.40;80.80;;;;;;5036110;28;20037;-52
2023/08/17 00:16:13;;;;;;;6.85;5.38;;;23.40;80.70;;;;;;5036282;28;20589;-51
2023/08/17 00:18:39;;;;;;;7.63;5.50;;;23.30;80.80;;;;;;5036222;28;20050;-51
2023/08/17 00:21:04;;;;;;;6.35;5.70;;;23.30;80.80;;;;;;5036438;28;20085;-50
2023/08/17 00:23:30;;;;;;;6.28;5.68;;;23.30;80.90;;;;;;5035863;28;20065;-52
2023/08/17 00:25:56;;;;;;;5.97;5.38;;;23.30;81.10;;;;;;5034559;28;20034;-54
2023/08/17 00:28:21;;;;;;;6.43;5.75;;;23.30;81.40;;;;;;5035677;28;20018;-54
2023/08/17 00:30:47;;;;;;;7.80;5.90;;;23.30;81.60;;;;;;5035684;28;20026;-52
2023/08/17 00:33:12;;;;;;;7.07;6.32;;;23.30;81.30;;;;;;5036617;28;20050;-54
2023/08/17 00:35:38;;;;;;;6.13;5.53;;;23.30;81.30;;;;;;5035671;28;20030;-51
2023/08/17 00:38:04;;;;;;;6.53;5.63;;;23.30;81.60;;;;;;5035798;28;20034;-51
2023/08/17 00:40:29;;;;;;;6.70;5.75;;;23.30;81.80;;;;;;5035779;28;20036;-54
2023/08/17 00:42:55;;;;;;;6.95;5.35;;;23.30;81.70;;;;;;5035789;28;20040;-55
2023/08/17 00:45:23;;;;;;;6.82;5.32;;;23.30;81.30;;;;;;5035860;28;20114;-51
2023/08/17 00:47:49;;;;;;;7.60;5.50;;;23.20;81.30;;;;;;5035854;28;20005;-52
2023/08/17 00:50:15;;;;;;;6.20;4.95;;;23.20;81.50;;;;;;5035927;28;20030;-52
2023/08/17 00:52:42;;;;;;;5.95;5.35;;;23.20;81.40;;;;;;5035470;28;20018;-48
2023/08/17 00:55:11;;;;;;;6.28;5.68;;;23.20;81.70;;;;;;5035755;28;20022;-51
2023/08/17 00:57:37;;;;;;;7.10;5.82;;;23.20;81.70;;;;;;5035216;28;20030;-53
2023/08/17 01:00:04;;;;;;;8.05;6.15;;;23.20;81.70;;;;;;5035421;28;20037;-55
2023/08/17 01:02:31;;;;;;;6.63;5.43;;;23.20;81.90;;;;;;5035191;28;20029;-52
2023/08/17 01:04:56;;;;;;;6.68;5.97;;;23.20;81.70;;;;;;5035692;28;20040;-52
2023/08/17 01:07:22;;;;;;;6.78;5.32;;;23.20;81.60;;;;;;5035378;28;20029;-51
2023/08/17 01:09:47;;;;;;;6.45;5.85;;;23.20;81.70;;;;;;5035157;28;20034;-53
2023/08/17 01:12:17;;;;;;;6.90;6.22;;;23.20;81.40;;;;;;5035158;28;20030;-52
2023/08/17 01:15:15;;;;;;;6.88;5.60;;;23.10;81.40;;;;;;5035045;28;20030;-53
2023/08/17 01:18:16;;;;;;;5.97;5.38;;;23.20;81.10;;;;;;5026129;28;20126;-51
2023/08/17 01:20:43;;;;;;;6.18;5.57;;;23.10;80.90;;;;;;5035372;28;20025;-54
2023/08/17 01:23:09;;;;;;;6.78;4.93;;;23.10;81.20;;;;;;5034321;28;20046;-48
2023/08/17 01:25:36;;;;;;;7.93;5.40;;;23.10;81.10;;;;;;5034937;28;20036;-53
2023/08/17 01:28:03;;;;;;;6.40;5.63;;;23.10;80.90;;;;;;5035003;28;20093;-50
2023/08/17 01:30:33;;;;;;;7.13;5.30;;;23.00;81.10;;;;;;5034914;28;20072;-47
2023/08/17 01:33:07;;;;;;;6.10;5.50;;;23.00;81.10;;;;;;5035092;28;20225;-47
2023/08/17 01:36:00;;;;;;;5.90;5.30;;;23.00;80.90;;;;;;5034578;28;20005;-49
2023/08/17 01:38:27;;;;;;;7.47;5.40;;;23.00;80.90;;;;;;5034354;28;20412;-50
2023/08/17 01:40:53;;;;;;;6.68;5.53;;;23.00;81.10;;;;;;5034365;28;20052;-51
2023/08/17 01:43:20;;;;;;;7.13;5.47;;;23.00;80.90;;;;;;5034839;28;20034;-51
2023/08/17 01:45:46;;;;;;;6.93;5.43;;;23.00;81.00;;;;;;5037026;28;20102;-53
2023/08/17 01:48:11;;;;;;;8.98;5.88;;;23.00;81.10;;;;;;5033988;28;20018;-54
2023/08/17 01:50:37;;;;;;;7.93;5.43;;;23.00;81.00;;;;;;5034274;28;20049;-54
2023/08/17 01:53:03;;;;;;;7.55;5.40;;;22.90;81.00;;;;;;5035008;28;20078;-54
2023/08/17 01:55:29;;;;;;;6.72;5.60;;;22.90;81.10;;;;;;5034178;28;20034;-50
2023/08/17 01:57:54;;;;;;;5.65;5.10;;;23.00;81.00;;;;;;5033588;28;20057;-51
2023/08/17 02:00:20;;;;;;;6.65;5.40;;;23.00;81.00;;;;;;5034145;28;20053;-52
2023/08/17 02:02:46;;;;;;;5.95;5.35;;;22.90;81.00;;;;;;5034013;28;20037;-50
2023/08/17 02:05:11;;;;;;;5.43;4.93;;;22.90;80.90;;;;;;5034495;28;20013;-53
2023/08/17 02:07:37;;;;;;;6.20;5.00;;;22.90;80.80;;;;;;5034727;28;20041;-50
2023/08/17 02:10:03;;;;;;;8.80;5.60;;;22.90;80.70;;;;;;5034379;28;20029;-55
2023/08/17 02:12:28;;;;;;;6.05;5.45;;;22.90;80.70;;;;;;5034434;28;20265;-50
2023/08/17 02:14:54;;;;;;;6.18;5.32;;;22.90;80.60;;;;;;5034550;28;20038;-51
2023/08/17 02:17:21;;;;;;;6.63;5.00;;;22.90;80.60;;;;;;5034359;28;20054;-49
2023/08/17 02:19:47;;;;;;;6.65;5.32;;;22.90;80.50;;;;;;5034535;28;20018;-52
2023/08/17 02:22:14;;;;;;;5.78;5.20;;;22.90;80.50;;;;;;5034546;28;20014;-51
2023/08/17 02:24:40;;;;;;;5.93;5.30;;;22.90;80.40;;;;;;5034097;28;20036;-52
2023/08/17 02:27:06;;;;;;;7.65;5.70;;;22.90;80.40;;;;;;5033710;28;20045;-53
2023/08/17 02:29:32;;;;;;;5.50;4.65;;;22.90;80.30;;;;;;5033710;28;20086;-50
2023/08/17 02:31:58;;;;;;;5.95;5.30;;;22.90;80.20;;;;;;5034005;28;20033;-52
2023/08/17 02:34:23;;;;;;;5.30;4.80;;;22.90;80.10;;;;;;5033790;28;20037;-49
2023/08/17 02:36:49;;;;;;;6.80;5.10;;;22.90;80.10;;;;;;5034270;28;20470;-50
2023/08/17 02:39:14;;;;;;;6.07;5.47;;;22.90;80.20;;;;;;5033327;28;20034;-50
2023/08/17 02:41:40;;;;;;;5.80;4.80;;;22.90;79.90;;;;;;5034133;28;20041;-51
2023/08/17 02:44:06;;;;;;;7.32;5.60;;;22.90;79.90;;;;;;5033839;28;20040;-53
2023/08/17 02:46:32;;;;;;;5.30;4.78;;;22.80;80.10;;;;;;5034016;28;20029;-53
2023/08/17 02:48:57;;;;;;;7.90;4.97;;;22.80;80.20;;;;;;5037570;28;20021;-50
2023/08/17 02:51:23;;;;;;;6.40;5.00;;;22.90;79.90;;;;;;5038721;28;20029;-49
2023/08/17 02:53:49;;;;;;;7.63;5.15;;;22.80;79.40;;;;;;5037888;28;20034;-48
2023/08/17 02:56:14;;;;;;;5.25;4.75;;;22.80;79.30;;;;;;5038356;28;20029;-51
2023/08/17 02:58:40;;;;;;;5.57;5.03;;;22.80;79.50;;;;;;5037859;28;20025;-51
2023/08/17 03:01:09;;;;;;;6.60;5.03;;;22.80;79.30;;;;;;5038186;28;20017;-48
2023/08/17 03:03:35;;;;;;;5.53;4.65;;;22.80;79.30;;;;;;5037675;28;20026;-53
2023/08/17 03:06:02;;;;;;;5.63;4.97;;;22.90;79.20;;;;;;5038078;28;20026;-52
2023/08/17 03:08:28;;;;;;;5.43;4.93;;;22.90;79.30;;;;;;5037163;28;20030;-56
2023/08/17 03:10:54;;;;;;;6.35;5.13;;;22.90;79.30;;;;;;5037535;28;20033;-53
2023/08/17 03:13:19;;;;;;;6.60;4.85;;;23.00;79.10;;;;;;5037545;28;20026;-56
2023/08/17 03:15:45;;;;;;;5.53;5.00;;;23.00;78.90;;;;;;5019667;28;20022;-55
2023/08/17 03:18:11;;;;;;;5.53;5.03;;;22.90;78.60;;;;;;5036880;28;20067;-51
2023/08/17 03:20:37;;;;;;;5.82;5.25;;;23.00;78.70;;;;;;5036547;28;20034;-52
2023/08/17 03:23:06;;;;;;;7.90;5.03;;;22.90;78.70;;;;;;5036733;28;20042;-56
2023/08/17 03:25:31;;;;;;;5.15;4.57;;;23.00;78.80;;;;;;5037392;28;20046;-52
2023/08/17 03:27:57;;;;;;;5.25;4.75;;;23.00;78.70;;;;;;5036284;28;20068;-55
2023/08/17 03:30:23;;;;;;;6.95;5.03;;;22.90;78.50;;;;;;5036599;28;20090;-55
2023/08/17 03:32:48;;;;;;;5.80;4.63;;;22.90;78.20;;;;;;5037281;28;20073;-53
2023/08/17 03:35:14;;;;;;;6.43;4.78;;;23.00;78.40;;;;;;5037771;28;20093;-54
2023/08/17 03:37:39;;;;;;;6.15;5.00;;;23.00;78.60;;;;;;5037313;28;20033;-52
2023/08/17 03:40:06;;;;;;;6.93;5.40;;;23.00;78.80;;;;;;5036616;28;20037;-52
2023/08/17 03:42:31;;;;;;;5.82;4.90;;;23.00;78.90;;;;;;5036795;28;20085;-53
2023/08/17 03:44:57;;;;;;;5.60;5.00;;;23.10;79.00;;;;;;5037868;28;20030;-51
2023/08/17 03:47:23;;;;;;;6.50;4.68;;;23.10;78.80;;;;;;5038880;28;20036;-55
2023/08/17 03:49:48;;;;;;;7.25;5.22;;;23.20;78.80;;;;;;5037041;28;20033;-50
2023/08/17 03:52:14;;;;;;;7.60;4.90;;;23.20;78.00;;;;;;5037291;28;20081;-54
2023/08/17 03:54:40;;;;;;;5.28;4.78;;;23.20;77.30;;;;;;5036808;28;20025;-53
2023/08/17 03:57:05;;;;;;;4.75;4.13;;;23.20;77.20;;;;;;5053058;28;20038;-51
2023/08/17 03:59:31;;;;;;;5.78;4.70;;;23.30;77.30;;;;;;5036752;28;20033;-56
2023/08/17 04:01:57;;;;;;;4.93;4.38;;;23.30;77.20;;;;;;5037156;28;20034;-50
2023/08/17 04:04:22;;;;;;;6.05;4.38;;;23.40;77.70;;;;;;5036801;28;20025;-53
2023/08/17 04:06:48;;;;;;;5.05;4.25;;;23.60;78.00;;;;;;5037304;28;20041;-50
2023/08/17 04:09:13;;;;;;;4.90;4.45;;;23.70;77.60;;;;;;5037955;28;20018;-52
2023/08/17 04:11:39;;;;;;;8.52;4.88;;;23.90;77.10;;;;;;5036945;28;20037;-53
2023/08/17 04:14:05;;;;;;;5.45;4.55;;;24.10;76.40;;;;;;5037009;28;20544;-55
2023/08/17 04:16:32;;;;;;;6.20;4.38;;;24.20;75.70;;;;;;5037444;28;20029;-55
2023/08/17 04:18:57;;;;;;;5.13;4.47;;;24.30;75.40;;;;;;5037025;28;20098;-54
2023/08/17 04:21:23;;;;;;;4.93;4.22;;;24.40;75.50;;;;;;5036727;28;20030;-51
2023/08/17 04:23:49;;;;;;;6.28;4.07;;;24.50;74.90;;;;;;5036213;28;20038;-51
2023/08/17 04:26:14;;;;;;;4.90;4.50;;;24.60;74.30;;;;;;5036936;28;20065;-50
2023/08/17 04:28:40;;;;;;;5.13;4.43;;;24.70;73.90;;;;;;5036529;28;20057;-53
2023/08/17 04:31:06;;;;;;;5.50;4.00;;;24.70;73.60;;;;;;5037171;28;20009;-52
2023/08/17 04:33:31;;;;;;;5.10;4.63;;;24.70;73.20;;;;;;5035709;28;20038;-53
2023/08/17 04:35:58;;;;;;;6.25;4.85;;;24.70;73.00;;;;;;5035324;28;20094;-56
2023/08/17 04:38:25;;;;;;;5.38;4.57;;;24.60;72.80;;;;;;5035492;28;20018;-50
2023/08/17 04:40:51;;;;;;;4.45;4.05;;;24.60;72.50;;;;;;5035973;28;20040;-52
2023/08/17 04:43:16;;;;;;;6.32;4.50;;;24.70;72.50;;;;;;5035724;28;20022;-51
2023/08/17 04:45:42;;;;;;;5.30;4.80;;;24.70;72.70;;;;;;5035792;28;20029;-53
2023/08/17 04:48:08;;;;;;;5.10;4.60;;;24.70;72.20;;;;;;5036247;28;20022;-53
2023/08/17 04:50:33;;;;;;;6.43;4.85;;;24.60;72.00;;;;;;5036225;28;20022;-48
2023/08/17 04:52:59;;;;;;;5.72;4.63;;;24.60;71.80;;;;;;5035508;28;20006;-57
2023/08/17 04:55:24;;;;;;;5.80;5.20;;;24.60;71.90;;;;;;5035353;28;20081;-51
2023/08/17 04:57:50;;;;;;;5.63;4.32;;;24.60;71.70;;;;;;5035635;28;20068;-52
2023/08/17 05:00:16;;;;;;;5.32;4.57;;;24.60;71.30;;;;;;5038026;28;20057;-48
2023/08/17 05:02:42;;;;;;;5.25;4.57;;;24.70;71.30;;;;;;5037709;28;20056;-49
2023/08/17 05:05:10;;;;;;;4.78;4.30;;;24.70;71.50;;;;;;5038204;28;20053;-50
2023/08/17 05:07:36;;;;;;;6.18;4.30;;;24.80;71.50;;;;;;5037809;28;20049;-48
2023/08/17 05:10:02;;;;;;;5.15;4.28;;;24.80;71.40;;;;;;5037346;28;20022;-52
2023/08/17 05:12:27;;;;;;;6.97;4.80;;;24.90;71.40;;;;;;5037815;28;20024;-49
2023/08/17 05:14:53;;;;;;;5.25;4.53;;;25.00;71.30;;;;;;5037339;28;20045;-49
2023/08/17 05:17:19;;;;;;;5.40;4.50;;;25.10;71.30;;;;;;5037952;28;20014;-50
2023/08/17 05:19:45;;;;;;;5.10;4.60;;;25.10;71.10;;;;;;5036448;28;20046;-50
2023/08/17 05:22:12;;;;;;;5.47;4.63;;;25.20;71.10;;;;;;5036269;28;20030;-52
2023/08/17 05:24:38;;;;;;;5.40;4.65;;;25.20;71.20;;;;;;5036545;28;20010;-48
2023/08/17 05:27:04;;;;;;;5.38;4.65;;;25.20;71.00;;;;;;5035893;28;20026;-48
2023/08/17 05:29:32;;;;;;;4.90;4.40;;;25.20;70.90;;;;;;5035884;28;20021;-48
2023/08/17 05:31:58;;;;;;;4.68;4.25;;;25.20;70.90;;;;;;5035291;28;20085;-50
2023/08/17 05:34:23;;;;;;;5.13;4.60;;;25.30;70.80;;;;;;5036183;28;20026;-49
2023/08/17 05:36:49;;;;;;;10.38;4.78;;;25.40;71.50;;;;;;5036836;28;20024;-51
2023/08/17 05:39:15;;;;;;;5.45;4.93;;;25.60;70.90;;;;;;5037193;28;20064;-50
2023/08/17 05:41:41;;;;;;;5.10;4.55;;;25.90;70.80;;;;;;5036655;28;20018;-48
2023/08/17 05:44:06;;;;;;;6.05;4.88;;;26.00;70.40;;;;;;5036203;28;20034;-48
2023/08/17 05:46:33;;;;;;;5.45;4.85;;;26.10;70.20;;;;;;5033752;28;20036;-51
2023/08/17 05:48:59;;;;;;;4.97;4.47;;;26.10;69.50;;;;;;5032104;28;20043;-49
2023/08/17 05:51:25;;;;;;;5.80;5.05;;;26.20;69.00;;;;;;5035029;28;20034;-51
2023/08/17 05:53:50;;;;;;;5.25;4.60;;;26.10;68.90;;;;;;5035754;28;20014;-49
2023/08/17 05:56:16;;;;;;;7.43;4.88;;;26.10;68.90;;;;;;5036391;28;20127;-49
2023/08/17 05:58:41;;;;;;;6.10;4.97;;;26.10;68.80;;;;;;5036445;28;20045;-49
2023/08/17 06:01:09;;;;;;;6.38;5.25;;;26.10;68.60;;;;;;5036590;28;20018;-51
2023/08/17 06:03:35;;;;;;;6.40;4.60;;;26.10;68.60;;;;;;5036491;28;20029;-51
2023/08/17 06:06:02;;;;;;;6.55;5.00;;;26.00;68.70;;;;;;5036396;28;20064;-51
2023/08/17 06:08:27;;;;;;;5.80;4.80;;;26.10;68.60;;;;;;5036925;28;20081;-51
2023/08/17 06:10:53;;;;;;;5.43;4.90;;;26.00;68.80;;;;;;5036485;28;20030;-52
2023/08/17 06:13:19;;;;;;;4.97;4.55;;;26.00;69.30;;;;;;5036784;28;20033;-51
2023/08/17 06:15:44;;;;;;;5.35;4.85;;;26.00;69.50;;;;;;5036607;28;20065;-53
2023/08/17 06:18:10;;;;;;;5.97;4.50;;;26.00;69.60;;;;;;5037044;28;20014;-52
2023/08/17 06:20:36;;;;;;;6.10;4.72;;;25.90;69.70;;;;;;5036522;28;20034;-51
2023/08/17 06:23:01;;;;;;;5.20;4.70;;;25.90;69.70;;;;;;5035433;28;20078;-49
2023/08/17 06:25:27;;;;;;;6.22;4.40;;;26.00;69.80;;;;;;5036475;28;20014;-48
2023/08/17 06:27:52;;;;;;;6.10;4.65;;;26.00;70.30;;;;;;5036683;28;20029;-53
2023/08/17 06:30:18;;;;;;;7.07;4.38;;;26.00;70.50;;;;;;5036741;28;20036;-50
2023/08/17 06:32:44;;;;;;;5.03;4.53;;;26.10;70.60;;;;;;5036726;28;20056;-58
2023/08/17 06:35:10;;;;;;;6.57;4.53;;;26.20;70.30;;;;;;5036262;28;20048;-49
2023/08/17 06:37:36;;;;;;;5.07;4.18;;;26.20;69.90;;;;;;5036381;28;20117;-50
2023/08/17 06:40:05;;;;;;;5.63;4.20;;;26.30;69.80;;;;;;5036287;28;20014;-51
2023/08/17 06:42:32;;;;;;;4.97;4.47;;;26.40;70.00;;;;;;5036308;28;20022;-53
2023/08/17 06:44:57;;;;;;;4.93;4.38;;;26.40;69.70;;;;;;5034777;28;20034;-49
2023/08/17 06:47:23;;;;;;;4.75;4.25;;;26.50;69.50;;;;;;5034305;28;20056;-50
2023/08/17 06:49:49;;;;;;;5.90;4.30;;;26.50;69.20;;;;;;5034553;28;20049;-48
2023/08/17 06:52:14;;;;;;;4.13;3.63;;;26.50;68.90;;;;;;5030073;28;20041;-49
2023/08/17 06:54:40;;;;;;;5.50;4.82;;;26.50;69.30;;;;;;5026857;28;20026;-50
2023/08/17 06:57:06;;;;;;;7.45;4.50;;;26.60;69.80;;;;;;5033733;28;20022;-49
2023/08/17 06:59:33;;;;;;;5.13;4.63;;;26.60;69.90;;;;;;5030490;28;20033;-51
2023/08/17 07:01:59;;;;;;;5.50;4.45;;;26.70;69.30;;;;;;5031867;28;20067;-48
2023/08/17 07:04:25;;;;;;;5.32;4.35;;;26.70;68.90;;;;;;5033443;28;20026;-52
2023/08/17 07:06:51;;;;;;;5.50;4.40;;;26.70;68.80;;;;;;5033976;28;20036;-49
2023/08/17 07:09:16;;;;;;;5.55;5.00;;;26.70;68.40;;;;;;5033652;28;20106;-50
2023/08/17 07:11:42;;;;;;;7.65;4.72;;;26.70;68.20;;;;;;5030151;28;20070;-52
2023/08/17 07:14:08;;;;;;;5.13;4.22;;;26.70;67.90;;;;;;5032856;28;20034;-49
2023/08/17 07:16:34;;;;;;;5.05;4.55;;;26.60;68.00;;;;;;5029049;28;20018;-54
2023/08/17 07:18:59;;;;;;;6.03;4.32;;;26.60;68.40;;;;;;5032291;28;20022;-51
2023/08/17 07:21:26;;;;;;;5.95;4.28;;;26.60;68.50;;;;;;5033961;28;20021;-51
2023/08/17 07:23:54;;;;;;;5.28;4.47;;;26.60;69.00;;;;;;5032293;28;20061;-52
2023/08/17 07:26:20;;;;;;;6.00;4.60;;;26.60;69.30;;;;;;5032034;28;20014;-51
2023/08/17 07:28:46;;;;;;;6.55;4.80;;;26.60;69.50;;;;;;5030805;28;20041;-48
2023/08/17 07:31:12;;;;;;;6.07;4.68;;;26.60;70.20;;;;;;5025973;28;20063;-49
2023/08/17 07:33:38;;;;;;;8.15;6.30;;;26.50;69.80;;;;;;5023953;28;20034;-49
2023/08/17 07:36:04;;;;;;;7.20;5.18;;;26.50;70.10;;;;;;5026377;28;20041;-50
2023/08/17 07:38:30;;;;;;;5.60;5.05;;;26.50;70.20;;;;;;5035883;28;20235;-49
2023/08/17 07:40:55;;;;;;;5.88;4.85;;;26.50;70.20;;;;;;5034140;28;20025;-48
2023/08/17 07:43:21;;;;;;;5.63;4.47;;;26.50;70.10;;;;;;5035412;28;20038;-51
2023/08/17 07:45:56;;;;;;;5.70;4.70;;;26.50;70.30;;;;;;5031481;28;20014;-52
2023/08/17 07:48:22;;;;;;;6.57;4.80;;;26.60;70.40;;;;;;5031687;28;20072;-53
2023/08/17 07:50:52;;;;;;;5.95;4.97;;;26.60;70.40;;;;;;5032480;28;20085;-49
2023/08/17 07:53:18;;;;;;;5.57;4.80;;;26.60;70.20;;;;;;5035427;28;20064;-51
2023/08/17 07:55:44;;;;;;;6.18;5.22;;;26.60;69.90;;;;;;5031709;28;20279;-51
2023/08/17 07:58:10;;;;;;;5.78;4.43;;;26.60;70.00;;;;;;5032479;28;20388;-51
2023/08/17 08:00:35;;;;;;;7.35;4.95;;;26.60;70.00;;;;;;5032935;28;20041;-51
2023/08/17 08:03:01;;;;;;;8.45;5.18;;;26.60;70.00;;;;;;5037736;28;20025;-49
2023/08/17 08:05:27;;;;;;;5.18;4.68;;;26.70;70.30;;;;;;5034033;28;20061;-48
2023/08/17 08:07:53;;;;;;;6.13;4.80;;;26.70;70.30;;;;;;5033501;28;20050;-49
2023/08/17 08:10:19;;;;;;;8.88;4.85;;;26.70;70.60;;;;;;5032263;28;20232;-49
2023/08/17 08:12:45;;;;;;;7.32;5.07;;;26.70;70.50;;;;;;5025076;28;20113;-50
2023/08/17 08:15:10;;;;;;;6.57;5.78;;;26.70;70.50;;;;;;5030206;28;20025;-53
2023/08/17 08:17:36;;;;;;;6.65;5.60;;;26.70;70.40;;;;;;5034616;28;20116;-51
2023/08/17 08:20:03;;;;;;;5.75;5.22;;;26.70;70.20;;;;;;5034830;28;20014;-53
2023/08/17 08:22:28;;;;;;;6.75;4.95;;;26.70;70.40;;;;;;5031172;28;20033;-51
2023/08/17 08:24:54;;;;;;;7.07;4.90;;;26.70;70.50;;;;;;5033147;28;20041;-51
2023/08/17 08:27:20;;;;;;;8.00;5.75;;;26.70;70.70;;;;;;5026786;28;20093;-48
2023/08/17 08:29:45;;;;;;;6.32;4.90;;;26.70;71.00;;;;;;5023652;28;20068;-49
2023/08/17 08:32:11;;;;;;;6.57;5.32;;;26.70;70.90;;;;;;5022565;28;20032;-48
2023/08/17 08:34:37;;;;;;;6.35;5.75;;;26.70;71.00;;;;;;5020585;28;20054;-52
2023/08/17 08:37:02;;;;;;;7.57;5.47;;;26.70;70.90;;;;;;5029348;28;20106;-53
2023/08/17 08:39:28;;;;;;;6.25;5.13;;;26.70;71.00;;;;;;5030042;28;20033;-50
2023/08/17 08:41:54;;;;;;;5.20;4.70;;;26.70;70.80;;;;;;5029250;28;20049;-52
2023/08/17 08:44:20;;;;;;;5.50;4.80;;;26.60;70.60;;;;;;4995968;23;20058;-79
2023/08/17 08:46:47;;;;;;;6.35;4.95;;;26.70;70.50;;;;;;4997055;28;20026;-79
2023/08/17 08:49:19;;;;;;;6.78;4.50;;;26.60;70.10;;;;;;4974553;28;20038;-79
2023/08/17 08:51:50;;;;;;;6.55;5.07;;;26.70;70.40;;;;;;4981621;28;20026;-79
2023/08/17 08:54:20;;;;;;;;;;;26.70;70.10;;;;;;4985657;28;20485;-78
2023/08/17 08:56:48;;;;;;;6.95;4.90;;;26.70;70.40;;;;;;5000691;28;19960;-80
2023/08/17 08:59:14;;;;;;;5.72;4.40;;;26.70;70.10;;;;;;4984070;28;20030;-80
2023/08/17 09:01:41;;;;;;;6.38;3.88;;;26.70;70.10;;;;;;4979805;28;20077;-79
2023/08/17 09:04:06;;;;;;;4.43;3.90;;;26.70;69.20;;;;;;4978997;28;20042;-78
2023/08/17 09:06:33;;;;;;;4.35;3.80;;;26.80;68.70;;;;;;4978699;28;20038;-78
2023/08/17 09:09:00;;;;;;;4.32;3.50;;;26.80;68.20;;;;;;4984739;28;20081;-79
2023/08/17 09:11:26;;;;;;;5.47;4.07;;;26.80;67.70;;;;;;4981525;28;20066;-79
2023/08/17 09:13:53;;;;;;;6.13;3.92;;;26.90;67.90;;;;;;4980961;28;20518;-79
2023/08/17 09:16:19;;;;;;;9.15;4.10;;;26.90;67.90;;;;;;4982346;28;20022;-77
2023/08/17 09:18:45;;;;;;;6.90;3.58;;;27.00;67.50;;;;;;4981752;28;20044;-77
2023/08/17 09:21:21;;;;;;;4.25;3.47;;;27.00;67.30;;;;;;4982599;28;20082;-78
2023/08/17 09:23:54;;;;;;;5.05;3.22;;;27.10;67.20;;;;;;4980314;28;20573;-78
2023/08/17 09:26:24;;;;;;;4.68;3.47;;;27.10;66.50;;;;;;4982649;28;20438;-78
2023/08/17 09:28:53;;;;;;;4.93;3.40;;;27.20;67.20;;;;;;4981678;28;20046;-77
2023/08/17 09:31:24;;;;;;;5.00;3.83;;;27.20;66.50;;;;;;4983091;28;20037;-79
2023/08/17 09:33:51;;;;;;;5.43;3.60;;;27.20;66.50;;;;;;4983741;28;20033;-79
2023/08/17 09:36:23;;;;;;;4.70;3.40;;;27.20;66.90;;;;;;4983102;28;20121;-77
2023/08/17 09:38:50;;;;;;;4.65;3.80;;;27.20;66.70;;;;;;4979284;28;20053;-79
2023/08/17 09:41:17;;;;;;;4.55;3.13;;;27.20;66.60;;;;;;5000628;28;20040;-77
2023/08/17 09:43:42;;;;;;;5.38;3.47;;;27.30;66.50;;;;;;4984661;28;20042;-79
2023/08/17 09:46:09;;;;;;;4.28;3.60;;;27.30;66.60;;;;;;4982416;28;20489;-78
2023/08/17 09:48:36;;;;;;;3.97;3.58;;;27.30;66.20;;;;;;4982750;28;20042;-78
2023/08/17 09:51:02;;;;;;;5.35;3.40;;;27.40;66.00;;;;;;4984834;28;20475;-78
2023/08/17 09:53:28;;;;;;;4.45;3.03;;;27.40;65.20;;;;;;4982931;28;20023;-78
2023/08/17 09:55:57;;;;;;;4.35;3.53;;;27.40;64.70;;;;;;4984271;28;20034;-78
2023/08/17 09:58:22;;;;;;;4.53;3.20;;;27.40;64.30;;;;;;4981833;28;20053;-79
2023/08/17 10:00:49;;;;;;;3.20;2.90;;;27.40;64.30;;;;;;4987121;28;20027;-79
2023/08/17 10:03:19;;;;;;;3.47;3.17;;;27.40;64.30;;;;;;4996169;28;20045;-84
2023/08/17 10:05:51;;;;;;;4.00;3.05;;;27.40;64.10;;;;;;5014461;28;20073;-85
2023/08/17 10:08:20;;;;;;;4.57;3.17;;;27.40;63.70;;;;;;5025142;28;20024;-85
2023/08/17 10:10:46;;;;;;;6.63;3.20;;;27.40;63.40;;;;;;5011783;28;20038;-85
2023/08/17 10:13:35;;;;;;;3.13;2.83;;;27.30;63.30;;;;;;5016289;28;20094;-86
2023/08/17 10:16:29;;;;;;;4.55;3.10;;;27.30;63.50;;;;;;5008887;28;20764;-86
2023/08/17 10:19:14;;;;;;;4.60;3.25;;;27.30;63.50;;;;;;5005409;28;20030;-86
2023/08/17 10:21:46;;;;;;;4.95;3.33;;;27.20;63.40;;;;;;5008739;28;20041;-86
2023/08/17 10:24:13;;;;;;;5.20;3.60;;;27.20;63.60;;;;;;5025714;28;20030;-85
2023/08/17 10:26:39;;;;;;;4.18;3.10;;;27.20;63.90;;;;;;5004987;28;20038;-87
2023/08/17 10:29:06;;;;;;;4.47;3.15;;;27.20;63.60;;;;;;5007529;28;20391;-86
2023/08/17 10:31:35;;;;;;;3.60;3.20;;;27.20;63.60;;;;;;5007647;28;20015;-86
2023/08/17 10:34:01;;;;;;;4.05;3.20;;;27.20;63.80;;;;;;5029186;23;20100;-85
2023/08/17 10:36:29;;;;;;;3.72;2.88;;;27.20;63.80;;;;;;5028339;28;20053;-83
2023/08/17 10:39:20;;;;;;;4.20;3.35;;;27.10;63.90;;;;;;5047307;28;20026;-83
2023/08/17 10:41:47;;;;;;;4.80;3.50;;;27.10;64.00;;;;;;5027385;28;20041;-83
2023/08/17 10:44:13;;;;;;;4.95;3.58;;;27.10;64.00;;;;;;5056493;28;20039;-84
2023/08/17 10:46:40;;;;;;;3.33;3.03;;;27.10;63.80;;;;;;5030718;28;20022;-84
2023/08/17 10:49:07;;;;;;;4.30;3.10;;;27.10;63.70;;;;;;5045697;28;20066;-83
2023/08/17 10:51:33;;;;;;;3.80;3.40;;;27.00;63.80;;;;;;5033890;28;20597;-82
2023/08/17 10:54:02;;;;;;;3.33;3.03;;;27.00;63.80;;;;;;5006600;28;20034;-81
2023/08/17 10:56:29;;;;;;;4.63;2.90;;;27.00;63.60;;;;;;5010522;28;20018;-81
2023/08/17 10:58:55;;;;;;;4.03;3.00;;;27.00;62.50;;;;;;5018886;28;20544;-83
2023/08/17 11:01:35;;;;;;;3.13;2.60;;;27.00;62.30;;;;;;5022045;28;20125;-83
2023/08/17 11:04:17;;;;;;;2.85;2.60;;;27.00;61.70;;;;;;5015031;28;20080;-83
2023/08/17 11:06:44;;;;;;;2.85;2.53;;;27.00;61.60;;;;;;5022000;28;20050;-83
2023/08/17 11:09:11;;;;;;;3.13;2.33;;;27.00;61.70;;;;;;5023830;28;20021;-83
2023/08/17 11:11:37;;;;;;;6.05;2.67;;;27.00;61.10;;;;;;5006098;28;20027;-81
2023/08/17 11:14:03;;;;;;;3.22;2.67;;;27.00;61.50;;;;;;5006807;28;20030;-83
2023/08/17 11:16:29;;;;;;;3.40;2.80;;;27.00;61.60;;;;;;5017284;28;20026;-82
2023/08/17 11:18:58;;;;;;;3.80;2.80;;;27.00;61.10;;;;;;5039066;28;20029;-83
2023/08/17 11:21:24;;;;;;;3.97;2.65;;;27.00;60.70;;;;;;5042125;28;20034;-83
2023/08/17 11:23:50;;;;;;;3.22;2.53;;;27.00;60.60;;;;;;5029552;28;20034;-81
2023/08/17 11:26:17;;;;;;;3.47;2.75;;;27.00;60.30;;;;;;5020882;28;20060;-83
2023/08/17 11:28:44;;;;;;;3.45;2.78;;;27.00;60.50;;;;;;5029624;28;20089;-85
2023/08/17 11:31:14;;;;;;;3.05;2.70;;;27.00;61.00;;;;;;5044634;28;20026;-84
2023/08/17 11:33:40;;;;;;;7.53;3.10;;;27.00;60.90;;;;;;5040737;28;20026;-84
2023/08/17 11:36:08;;;;;;;3.33;2.70;;;27.00;60.80;;;;;;5037043;28;20033;-83
2023/08/17 11:38:38;;;;;;;3.83;2.70;;;27.00;61.30;;;;;;5015664;28;20049;-84
2023/08/17 11:41:05;;;;;;;2.55;2.35;;;27.10;61.30;;;;;;5016141;28;20026;-83
2023/08/17 11:43:32;;;;;;;4.25;2.70;;;27.10;61.10;;;;;;5034547;28;20053;-84
2023/08/17 11:45:59;;;;;;;3.67;2.70;;;27.10;60.80;;;;;;5020436;28;20026;-84
2023/08/17 11:48:25;;;;;;;3.22;2.60;;;27.10;60.70;;;;;;5027711;28;20439;-83
2023/08/17 11:50:52;;;;;;;4.15;2.80;;;27.20;60.40;;;;;;5031353;28;20022;-83
2023/08/17 11:53:18;;;;;;;2.85;2.47;;;27.20;61.00;;;;;;5011493;28;20078;-83
2023/08/17 11:55:43;;;;;;;5.53;2.80;;;27.20;61.30;;;;;;5013706;28;20432;-82
2023/08/17 11:58:09;;;;;;;4.90;2.97;;;27.20;62.10;;;;;;5014208;28;20588;-84
2023/08/17 12:00:39;;;;;;;4.10;2.80;;;27.20;61.50;;;;;;5017956;28;20030;-84
2023/08/17 12:03:04;;;;;;;3.05;2.70;;;27.20;61.30;;;;;;5033354;28;20590;-85
2023/08/17 12:05:32;;;;;;;3.55;2.88;;;27.20;60.80;;;;;;5018395;28;20026;-83
2023/08/17 12:08:00;;;;;;;4.60;2.70;;;27.30;60.70;;;;;;5018099;28;20041;-84
2023/08/17 12:10:28;;;;;;;3.35;2.42;;;27.30;61.20;;;;;;5020482;28;20029;-84
2023/08/17 12:12:58;;;;;;;3.13;2.47;;;27.30;61.30;;;;;;5021068;28;20080;-85
2023/08/17 12:15:24;;;;;;;6.97;2.90;;;27.30;61.70;;;;;;5020880;28;20030;-87
2023/08/17 12:17:52;;;;;;;3.05;2.50;;;27.20;61.60;;;;;;5020155;28;20026;-85
2023/08/17 12:20:19;;;;;;;3.08;2.63;;;27.30;61.90;;;;;;5018465;28;20026;-86
2023/08/17 12:22:46;;;;;;;2.97;2.67;;;27.20;61.30;;;;;;5013290;28;20022;-86
2023/08/17 12:25:12;;;;;;;3.83;2.97;;;27.20;61.30;;;;;;5018825;28;20235;-86
2023/08/17 12:27:39;;;;;;;4.68;3.10;;;27.20;60.80;;;;;;5027233;28;20022;-86
2023/08/17 12:30:11;;;;;;;4.07;3.22;;;27.30;61.80;;;;;;5026346;28;20021;-86
2023/08/17 12:32:37;;;;;;;3.28;2.80;;;27.30;62.30;;;;;;5028330;28;20026;-85
2023/08/17 12:35:03;;;;;;;3.17;2.85;;;27.40;61.80;;;;;;5026620;28;20066;-87
2023/08/17 12:37:29;;;;;;;3.55;2.60;;;27.40;61.80;;;;;;5036269;28;20030;-84
2023/08/17 12:39:55;;;;;;;3.05;2.75;;;27.40;62.10;;;;;;5023308;28;20386;-85
2023/08/17 12:42:21;;;;;;;3.33;2.53;;;27.40;61.50;;;;;;5041657;28;20034;-85
2023/08/17 12:44:46;;;;;;;2.50;2.30;;;27.40;61.80;;;;;;5035040;28;21364;-85
2023/08/17 12:47:12;;;;;;;2.80;2.60;;;27.40;62.00;;;;;;5040907;28;20029;-85